sensor_id;sensor_type;location;lat;lon;timestamp;temperature;humidity
44990;DHT22;30723;51.206;3.326;2023-04-24T00:01:21;10.00;99.90
44990;DHT22;30723;51.206;3.326;2023-04-24T00:03:47;10.00;99.90
44990;DHT22;30723;51.206;3.326;2023-04-24T00:06:14;10.00;99.90
44990;DHT22;30723;51.206;3.326;2023-04-24T00:08:43;10.00;99.90
44990;DHT22;30723;51.206;3.326;2023-04-24T00:11:09;10.00;99.90
44990;DHT22;30723;51.206;3.326;2023-04-24T00:13:35;10.10;99.90
44990;DHT22;30723;51.206;3.326;2023-04-24T00:16:01;10.10;99.90
44990;DHT22;30723;51.206;3.326;2023-04-24T00:18:28;10.10;99.90
44990;DHT22;30723;51.206;3.326;2023-04-24T00:20:55;10.10;99.90
44990;DHT22;30723;51.206;3.326;2023-04-24T00:23:21;10.00;99.90
44990;DHT22;30723;51.206;3.326;2023-04-24T00:25:48;10.00;99.90
44990;DHT22;30723;51.206;3.326;2023-04-24T00:28:15;10.00;99.90
44990;DHT22;30723;51.206;3.326;2023-04-24T00:30:40;10.10;99.90
44990;DHT22;30723;51.206;3.326;2023-04-24T00:33:07;10.10;99.90
44990;DHT22;30723;51.206;3.326;2023-04-24T00:35:34;10.10;99.90
44990;DHT22;30723;51.206;3.326;2023-04-24T00:38:01;10.20;99.90
44990;DHT22;30723;51.206;3.326;2023-04-24T00:40:28;10.20;99.90
44990;DHT22;30723;51.206;3.326;2023-04-24T00:42:55;10.10;99.90
44990;DHT22;30723;51.206;3.326;2023-04-24T00:45:22;10.20;99.90
44990;DHT22;30723;51.206;3.326;2023-04-24T00:47:49;10.10;99.90
44990;DHT22;30723;51.206;3.326;2023-04-24T00:50:16;10.10;99.90
44990;DHT22;30723;51.206;3.326;2023-04-24T00:52:42;10.10;99.90
44990;DHT22;30723;51.206;3.326;2023-04-24T00:55:11;10.20;99.90
44990;DHT22;30723;51.206;3.326;2023-04-24T00:57:38;10.20;99.90
44990;DHT22;30723;51.206;3.326;2023-04-24T01:00:08;10.20;99.90
44990;DHT22;30723;51.206;3.326;2023-04-24T01:02:57;10.30;99.90
44990;DHT22;30723;51.206;3.326;2023-04-24T01:05:25;10.10;99.90
44990;DHT22;30723;51.206;3.326;2023-04-24T01:07:52;10.10;99.90
44990;DHT22;30723;51.206;3.326;2023-04-24T01:10:19;10.20;99.90
44990;DHT22;30723;51.206;3.326;2023-04-24T01:12:47;10.20;99.90
44990;DHT22;30723;51.206;3.326;2023-04-24T01:15:13;10.20;99.90
44990;DHT22;30723;51.206;3.326;2023-04-24T01:17:40;10.20;99.90
44990;DHT22;30723;51.206;3.326;2023-04-24T01:20:08;10.10;99.90
44990;DHT22;30723;51.206;3.326;2023-04-24T01:22:35;10.20;99.90
44990;DHT22;30723;51.206;3.326;2023-04-24T01:25:03;10.20;99.90
44990;DHT22;30723;51.206;3.326;2023-04-24T01:27:30;10.20;99.90
44990;DHT22;30723;51.206;3.326;2023-04-24T01:29:56;10.30;99.90
44990;DHT22;30723;51.206;3.326;2023-04-24T01:32:24;10.20;99.90
44990;DHT22;30723;51.206;3.326;2023-04-24T01:34:50;10.20;99.90
44990;DHT22;30723;51.206;3.326;2023-04-24T01:37:17;10.00;99.90
44990;DHT22;30723;51.206;3.326;2023-04-24T01:39:44;9.90;99.90
44990;DHT22;30723;51.206;3.326;2023-04-24T01:42:11;9.80;99.90
44990;DHT22;30723;51.206;3.326;2023-04-24T01:44:38;9.70;99.90
44990;DHT22;30723;51.206;3.326;2023-04-24T01:47:06;9.60;99.90
44990;DHT22;30723;51.206;3.326;2023-04-24T01:49:33;9.50;99.90
44990;DHT22;30723;51.206;3.326;2023-04-24T01:52:00;9.50;99.90
44990;DHT22;30723;51.206;3.326;2023-04-24T01:54:27;9.50;99.90
44990;DHT22;30723;51.206;3.326;2023-04-24T01:56:53;9.50;99.90
44990;DHT22;30723;51.206;3.326;2023-04-24T01:59:20;9.40;99.90
44990;DHT22;30723;51.206;3.326;2023-04-24T02:01:48;9.40;99.90
44990;DHT22;30723;51.206;3.326;2023-04-24T02:04:22;9.40;99.90
44990;DHT22;30723;51.206;3.326;2023-04-24T02:06:49;9.40;99.90
44990;DHT22;30723;51.206;3.326;2023-04-24T02:09:15;9.30;99.90
44990;DHT22;30723;51.206;3.326;2023-04-24T02:11:42;9.30;99.90
44990;DHT22;30723;51.206;3.326;2023-04-24T02:14:09;9.20;99.90
44990;DHT22;30723;51.206;3.326;2023-04-24T02:16:36;9.20;99.90
44990;DHT22;30723;51.206;3.326;2023-04-24T02:19:03;9.20;99.90
44990;DHT22;30723;51.206;3.326;2023-04-24T02:21:30;9.20;99.90
44990;DHT22;30723;51.206;3.326;2023-04-24T02:23:58;9.20;99.90
44990;DHT22;30723;51.206;3.326;2023-04-24T02:26:24;9.10;99.90
44990;DHT22;30723;51.206;3.326;2023-04-24T02:28:51;9.10;99.90
44990;DHT22;30723;51.206;3.326;2023-04-24T02:31:18;9.10;99.90
44990;DHT22;30723;51.206;3.326;2023-04-24T02:33:45;9.10;99.90
44990;DHT22;30723;51.206;3.326;2023-04-24T02:36:12;9.10;99.90
44990;DHT22;30723;51.206;3.326;2023-04-24T02:38:39;9.10;99.90
44990;DHT22;30723;51.206;3.326;2023-04-24T02:41:06;9.00;99.90
44990;DHT22;30723;51.206;3.326;2023-04-24T02:43:33;9.00;99.90
44990;DHT22;30723;51.206;3.326;2023-04-24T02:46:00;9.00;99.90
44990;DHT22;30723;51.206;3.326;2023-04-24T02:48:27;9.00;99.90
44990;DHT22;30723;51.206;3.326;2023-04-24T02:50:54;9.10;99.90
44990;DHT22;30723;51.206;3.326;2023-04-24T02:53:21;9.00;99.90
44990;DHT22;30723;51.206;3.326;2023-04-24T02:55:46;9.00;99.90
44990;DHT22;30723;51.206;3.326;2023-04-24T02:58:13;9.00;99.90
44990;DHT22;30723;51.206;3.326;2023-04-24T03:00:40;9.00;99.90
44990;DHT22;30723;51.206;3.326;2023-04-24T03:03:07;9.00;99.90
44990;DHT22;30723;51.206;3.326;2023-04-24T03:05:33;8.90;99.90
44990;DHT22;30723;51.206;3.326;2023-04-24T03:08:00;8.90;99.90
44990;DHT22;30723;51.206;3.326;2023-04-24T03:10:27;8.80;99.90
44990;DHT22;30723;51.206;3.326;2023-04-24T03:12:53;8.80;99.90
44990;DHT22;30723;51.206;3.326;2023-04-24T03:15:20;8.80;99.90
44990;DHT22;30723;51.206;3.326;2023-04-24T03:17:47;8.80;99.90
44990;DHT22;30723;51.206;3.326;2023-04-24T03:20:14;8.80;99.90
44990;DHT22;30723;51.206;3.326;2023-04-24T03:22:40;8.80;99.90
44990;DHT22;30723;51.206;3.326;2023-04-24T03:25:08;8.80;99.90
44990;DHT22;30723;51.206;3.326;2023-04-24T03:27:36;8.80;99.90
44990;DHT22;30723;51.206;3.326;2023-04-24T03:30:01;8.80;99.90
44990;DHT22;30723;51.206;3.326;2023-04-24T03:32:28;8.80;99.90
44990;DHT22;30723;51.206;3.326;2023-04-24T03:34:55;8.80;99.90
44990;DHT22;30723;51.206;3.326;2023-04-24T03:37:21;8.80;99.90
44990;DHT22;30723;51.206;3.326;2023-04-24T03:39:49;8.70;99.90
44990;DHT22;30723;51.206;3.326;2023-04-24T03:42:15;8.80;99.90
44990;DHT22;30723;51.206;3.326;2023-04-24T03:44:41;8.80;99.90
44990;DHT22;30723;51.206;3.326;2023-04-24T03:47:08;8.80;99.90
44990;DHT22;30723;51.206;3.326;2023-04-24T03:49:34;8.80;99.90
44990;DHT22;30723;51.206;3.326;2023-04-24T03:52:00;8.80;99.90
44990;DHT22;30723;51.206;3.326;2023-04-24T03:54:27;8.80;99.90
44990;DHT22;30723;51.206;3.326;2023-04-24T03:56:54;8.80;99.90
44990;DHT22;30723;51.206;3.326;2023-04-24T03:59:21;8.80;99.90
44990;DHT22;30723;51.206;3.326;2023-04-24T04:01:47;8.80;99.90
44990;DHT22;30723;51.206;3.326;2023-04-24T04:04:14;8.80;99.90
44990;DHT22;30723;51.206;3.326;2023-04-24T04:06:42;8.80;99.90
44990;DHT22;30723;51.206;3.326;2023-04-24T04:09:08;8.70;99.90
44990;DHT22;30723;51.206;3.326;2023-04-24T04:11:35;8.80;99.90
44990;DHT22;30723;51.206;3.326;2023-04-24T04:14:01;8.80;99.90
44990;DHT22;30723;51.206;3.326;2023-04-24T04:16:28;8.80;99.90
44990;DHT22;30723;51.206;3.326;2023-04-24T04:18:55;8.80;99.90
44990;DHT22;30723;51.206;3.326;2023-04-24T04:21:22;8.70;99.90
44990;DHT22;30723;51.206;3.326;2023-04-24T04:23:49;8.80;99.90
44990;DHT22;30723;51.206;3.326;2023-04-24T04:26:15;8.80;99.90
44990;DHT22;30723;51.206;3.326;2023-04-24T04:28:42;8.80;99.90
44990;DHT22;30723;51.206;3.326;2023-04-24T04:31:10;8.90;99.90
44990;DHT22;30723;51.206;3.326;2023-04-24T04:33:38;8.90;99.90
44990;DHT22;30723;51.206;3.326;2023-04-24T04:36:06;8.90;99.90
44990;DHT22;30723;51.206;3.326;2023-04-24T04:38:32;8.90;99.90
44990;DHT22;30723;51.206;3.326;2023-04-24T04:41:00;8.80;99.90
44990;DHT22;30723;51.206;3.326;2023-04-24T04:43:26;8.90;99.90
44990;DHT22;30723;51.206;3.326;2023-04-24T04:45:54;8.90;99.90
44990;DHT22;30723;51.206;3.326;2023-04-24T04:48:22;8.90;99.90
44990;DHT22;30723;51.206;3.326;2023-04-24T04:50:49;8.90;99.90
44990;DHT22;30723;51.206;3.326;2023-04-24T04:53:16;9.00;99.90
44990;DHT22;30723;51.206;3.326;2023-04-24T04:55:43;9.00;99.90
44990;DHT22;30723;51.206;3.326;2023-04-24T04:58:10;9.10;99.90
44990;DHT22;30723;51.206;3.326;2023-04-24T05:00:36;9.00;99.90
44990;DHT22;30723;51.206;3.326;2023-04-24T05:03:04;9.10;99.90
44990;DHT22;30723;51.206;3.326;2023-04-24T05:05:30;9.10;99.90
44990;DHT22;30723;51.206;3.326;2023-04-24T05:07:57;9.10;99.90
44990;DHT22;30723;51.206;3.326;2023-04-24T05:10:23;9.10;99.90
44990;DHT22;30723;51.206;3.326;2023-04-24T05:12:50;9.10;99.90
44990;DHT22;30723;51.206;3.326;2023-04-24T05:15:17;9.10;99.90
44990;DHT22;30723;51.206;3.326;2023-04-24T05:17:44;9.10;99.90
44990;DHT22;30723;51.206;3.326;2023-04-24T05:20:11;9.10;99.90
44990;DHT22;30723;51.206;3.326;2023-04-24T05:22:38;9.10;99.90
44990;DHT22;30723;51.206;3.326;2023-04-24T05:25:05;9.20;99.90
44990;DHT22;30723;51.206;3.326;2023-04-24T05:27:32;9.20;99.90
44990;DHT22;30723;51.206;3.326;2023-04-24T05:29:58;9.20;99.90
44990;DHT22;30723;51.206;3.326;2023-04-24T05:32:25;9.20;99.90
44990;DHT22;30723;51.206;3.326;2023-04-24T05:34:53;9.20;99.90
44990;DHT22;30723;51.206;3.326;2023-04-24T05:37:19;9.20;99.90
44990;DHT22;30723;51.206;3.326;2023-04-24T05:39:46;9.20;99.90
44990;DHT22;30723;51.206;3.326;2023-04-24T05:42:13;9.20;99.90
44990;DHT22;30723;51.206;3.326;2023-04-24T05:44:40;9.20;99.90
44990;DHT22;30723;51.206;3.326;2023-04-24T05:47:09;9.20;99.90
44990;DHT22;30723;51.206;3.326;2023-04-24T05:49:36;9.20;99.90
44990;DHT22;30723;51.206;3.326;2023-04-24T05:52:02;9.30;99.90
44990;DHT22;30723;51.206;3.326;2023-04-24T05:54:29;9.20;99.90
44990;DHT22;30723;51.206;3.326;2023-04-24T05:56:56;9.20;99.90
44990;DHT22;30723;51.206;3.326;2023-04-24T05:59:22;9.20;99.90
44990;DHT22;30723;51.206;3.326;2023-04-24T06:01:49;9.20;99.90
44990;DHT22;30723;51.206;3.326;2023-04-24T06:04:16;9.30;99.90
44990;DHT22;30723;51.206;3.326;2023-04-24T06:06:43;9.30;99.90
44990;DHT22;30723;51.206;3.326;2023-04-24T06:09:10;9.40;99.90
44990;DHT22;30723;51.206;3.326;2023-04-24T06:11:37;9.40;99.90
44990;DHT22;30723;51.206;3.326;2023-04-24T06:14:04;9.40;99.90
44990;DHT22;30723;51.206;3.326;2023-04-24T06:16:30;9.50;99.90
44990;DHT22;30723;51.206;3.326;2023-04-24T06:18:57;9.60;99.90
44990;DHT22;30723;51.206;3.326;2023-04-24T06:21:24;9.50;99.90
44990;DHT22;30723;51.206;3.326;2023-04-24T06:23:51;9.50;99.90
44990;DHT22;30723;51.206;3.326;2023-04-24T06:26:18;9.40;99.90
44990;DHT22;30723;51.206;3.326;2023-04-24T06:28:44;9.40;99.90
44990;DHT22;30723;51.206;3.326;2023-04-24T06:31:11;9.40;99.90
44990;DHT22;30723;51.206;3.326;2023-04-24T06:33:37;9.50;99.90
44990;DHT22;30723;51.206;3.326;2023-04-24T06:36:05;9.60;99.90
44990;DHT22;30723;51.206;3.326;2023-04-24T06:38:31;9.70;99.90
44990;DHT22;30723;51.206;3.326;2023-04-24T06:40:58;9.70;99.90
44990;DHT22;30723;51.206;3.326;2023-04-24T06:43:24;9.60;99.90
44990;DHT22;30723;51.206;3.326;2023-04-24T06:45:50;9.60;99.90
44990;DHT22;30723;51.206;3.326;2023-04-24T06:48:16;9.70;99.90
44990;DHT22;30723;51.206;3.326;2023-04-24T06:50:45;9.90;99.90
44990;DHT22;30723;51.206;3.326;2023-04-24T06:53:13;9.90;99.90
44990;DHT22;30723;51.206;3.326;2023-04-24T06:55:41;9.90;99.90
44990;DHT22;30723;51.206;3.326;2023-04-24T06:58:09;9.80;99.90
44990;DHT22;30723;51.206;3.326;2023-04-24T07:00:36;9.90;99.90
44990;DHT22;30723;51.206;3.326;2023-04-24T07:03:03;9.80;99.90
44990;DHT22;30723;51.206;3.326;2023-04-24T07:05:31;9.80;99.90
44990;DHT22;30723;51.206;3.326;2023-04-24T07:07:59;9.80;99.90
44990;DHT22;30723;51.206;3.326;2023-04-24T07:10:25;9.80;99.90
44990;DHT22;30723;51.206;3.326;2023-04-24T07:12:55;9.80;99.90
44990;DHT22;30723;51.206;3.326;2023-04-24T07:15:22;9.90;99.90
44990;DHT22;30723;51.206;3.326;2023-04-24T07:17:48;9.90;99.90
44990;DHT22;30723;51.206;3.326;2023-04-24T07:20:16;9.80;99.90
44990;DHT22;30723;51.206;3.326;2023-04-24T07:22:43;9.70;99.90
44990;DHT22;30723;51.206;3.326;2023-04-24T07:25:09;9.70;99.90
44990;DHT22;30723;51.206;3.326;2023-04-24T07:27:36;9.80;99.90
44990;DHT22;30723;51.206;3.326;2023-04-24T07:30:03;10.10;99.90
44990;DHT22;30723;51.206;3.326;2023-04-24T07:32:29;10.60;99.90
44990;DHT22;30723;51.206;3.326;2023-04-24T07:34:56;11.20;99.90
44990;DHT22;30723;51.206;3.326;2023-04-24T07:37:23;11.20;99.90
44990;DHT22;30723;51.206;3.326;2023-04-24T07:39:50;11.20;99.90
44990;DHT22;30723;51.206;3.326;2023-04-24T07:42:17;11.20;99.90
44990;DHT22;30723;51.206;3.326;2023-04-24T07:44:44;11.40;99.90
44990;DHT22;30723;51.206;3.326;2023-04-24T07:47:12;11.70;99.90
44990;DHT22;30723;51.206;3.326;2023-04-24T07:49:38;11.80;99.90
44990;DHT22;30723;51.206;3.326;2023-04-24T07:52:04;11.90;99.90
44990;DHT22;30723;51.206;3.326;2023-04-24T07:54:30;12.20;99.90
44990;DHT22;30723;51.206;3.326;2023-04-24T07:56:57;12.40;99.90
44990;DHT22;30723;51.206;3.326;2023-04-24T07:59:23;12.60;99.90
44990;DHT22;30723;51.206;3.326;2023-04-24T08:01:50;12.60;99.90
44990;DHT22;30723;51.206;3.326;2023-04-24T08:04:18;12.60;99.90
44990;DHT22;30723;51.206;3.326;2023-04-24T08:06:45;12.70;99.90
44990;DHT22;30723;51.206;3.326;2023-04-24T08:09:13;12.50;99.90
44990;DHT22;30723;51.206;3.326;2023-04-24T08:11:39;12.20;99.90
44990;DHT22;30723;51.206;3.326;2023-04-24T08:14:06;12.00;99.90
44990;DHT22;30723;51.206;3.326;2023-04-24T08:16:32;11.80;99.90
44990;DHT22;30723;51.206;3.326;2023-04-24T08:18:59;11.60;99.90
44990;DHT22;30723;51.206;3.326;2023-04-24T08:21:26;11.00;99.90
44990;DHT22;30723;51.206;3.326;2023-04-24T08:23:53;10.80;99.90
44990;DHT22;30723;51.206;3.326;2023-04-24T08:26:20;11.40;99.90
44990;DHT22;30723;51.206;3.326;2023-04-24T08:28:47;11.80;99.90
44990;DHT22;30723;51.206;3.326;2023-04-24T08:31:14;12.40;99.90
44990;DHT22;30723;51.206;3.326;2023-04-24T08:33:41;12.20;99.90
44990;DHT22;30723;51.206;3.326;2023-04-24T08:36:11;12.00;99.90
44990;DHT22;30723;51.206;3.326;2023-04-24T08:38:37;11.70;99.90
44990;DHT22;30723;51.206;3.326;2023-04-24T08:41:03;11.40;99.90
44990;DHT22;30723;51.206;3.326;2023-04-24T08:43:30;11.30;99.90
44990;DHT22;30723;51.206;3.326;2023-04-24T08:45:59;11.20;99.90
44990;DHT22;30723;51.206;3.326;2023-04-24T08:48:25;11.30;99.90
44990;DHT22;30723;51.206;3.326;2023-04-24T08:50:53;11.50;99.90
44990;DHT22;30723;51.206;3.326;2023-04-24T08:53:20;11.40;99.90
44990;DHT22;30723;51.206;3.326;2023-04-24T08:55:48;11.10;99.90
44990;DHT22;30723;51.206;3.326;2023-04-24T08:58:15;11.10;99.90
44990;DHT22;30723;51.206;3.326;2023-04-24T09:00:41;11.10;99.90
44990;DHT22;30723;51.206;3.326;2023-04-24T09:03:16;10.90;99.90
44990;DHT22;30723;51.206;3.326;2023-04-24T09:05:47;10.90;99.90
44990;DHT22;30723;51.206;3.326;2023-04-24T09:08:14;10.90;99.90
44990;DHT22;30723;51.206;3.326;2023-04-24T09:10:41;11.00;99.90
44990;DHT22;30723;51.206;3.326;2023-04-24T09:13:08;11.10;99.90
44990;DHT22;30723;51.206;3.326;2023-04-24T09:15:38;11.30;99.90
44990;DHT22;30723;51.206;3.326;2023-04-24T09:18:04;11.40;99.90
44990;DHT22;30723;51.206;3.326;2023-04-24T09:20:32;11.60;99.90
44990;DHT22;30723;51.206;3.326;2023-04-24T09:22:58;11.30;99.90
44990;DHT22;30723;51.206;3.326;2023-04-24T09:25:35;11.10;99.90
44990;DHT22;30723;51.206;3.326;2023-04-24T09:28:05;10.80;99.90
44990;DHT22;30723;51.206;3.326;2023-04-24T09:30:32;10.70;99.90
44990;DHT22;30723;51.206;3.326;2023-04-24T09:33:30;10.80;99.90
44990;DHT22;30723;51.206;3.326;2023-04-24T09:35:57;11.00;99.90
44990;DHT22;30723;51.206;3.326;2023-04-24T09:41:07;11.80;99.90
44990;DHT22;30723;51.206;3.326;2023-04-24T09:43:35;12.00;99.90
44990;DHT22;30723;51.206;3.326;2023-04-24T09:46:06;12.10;99.90
44990;DHT22;30723;51.206;3.326;2023-04-24T09:48:37;12.20;99.90
44990;DHT22;30723;51.206;3.326;2023-04-24T09:51:04;12.80;99.90
44990;DHT22;30723;51.206;3.326;2023-04-24T09:53:33;13.00;99.90
44990;DHT22;30723;51.206;3.326;2023-04-24T09:56:18;13.20;99.90
44990;DHT22;30723;51.206;3.326;2023-04-24T09:58:47;14.00;99.90
44990;DHT22;30723;51.206;3.326;2023-04-24T10:01:13;14.20;99.90
44990;DHT22;30723;51.206;3.326;2023-04-24T10:03:43;14.40;99.90
44990;DHT22;30723;51.206;3.326;2023-04-24T10:06:12;14.20;99.90
44990;DHT22;30723;51.206;3.326;2023-04-24T10:08:39;14.50;99.90
44990;DHT22;30723;51.206;3.326;2023-04-24T10:11:06;15.10;99.90
44990;DHT22;30723;51.206;3.326;2023-04-24T10:13:33;15.10;99.90
44990;DHT22;30723;51.206;3.326;2023-04-24T10:16:01;14.70;99.90
44990;DHT22;30723;51.206;3.326;2023-04-24T10:18:30;14.30;99.90
44990;DHT22;30723;51.206;3.326;2023-04-24T10:20:57;13.70;99.90
44990;DHT22;30723;51.206;3.326;2023-04-24T10:23:26;13.50;99.90
44990;DHT22;30723;51.206;3.326;2023-04-24T10:25:53;13.60;99.90
44990;DHT22;30723;51.206;3.326;2023-04-24T10:28:21;13.20;99.90
44990;DHT22;30723;51.206;3.326;2023-04-24T10:30:48;13.50;99.90
44990;DHT22;30723;51.206;3.326;2023-04-24T10:33:16;13.90;99.90
44990;DHT22;30723;51.206;3.326;2023-04-24T10:35:46;13.50;99.90
44990;DHT22;30723;51.206;3.326;2023-04-24T10:38:18;14.00;99.90
44990;DHT22;30723;51.206;3.326;2023-04-24T10:41:10;14.60;99.90
44990;DHT22;30723;51.206;3.326;2023-04-24T10:43:42;15.30;99.90
44990;DHT22;30723;51.206;3.326;2023-04-24T10:46:09;15.10;99.90
44990;DHT22;30723;51.206;3.326;2023-04-24T10:48:42;16.10;99.90
44990;DHT22;30723;51.206;3.326;2023-04-24T10:51:12;16.10;99.90
44990;DHT22;30723;51.206;3.326;2023-04-24T10:53:40;16.80;99.90
44990;DHT22;30723;51.206;3.326;2023-04-24T10:56:09;17.30;99.90
44990;DHT22;30723;51.206;3.326;2023-04-24T10:58:41;17.40;99.90
44990;DHT22;30723;51.206;3.326;2023-04-24T11:01:31;17.10;99.90
44990;DHT22;30723;51.206;3.326;2023-04-24T11:04:00;18.00;99.90
44990;DHT22;30723;51.206;3.326;2023-04-24T11:06:30;18.10;99.90
44990;DHT22;30723;51.206;3.326;2023-04-24T11:09:08;16.90;99.90
44990;DHT22;30723;51.206;3.326;2023-04-24T11:11:37;16.20;99.90
44990;DHT22;30723;51.206;3.326;2023-04-24T11:14:07;16.40;99.90
44990;DHT22;30723;51.206;3.326;2023-04-24T11:24:37;17.30;99.90
44990;DHT22;30723;51.206;3.326;2023-04-24T11:35:20;15.50;99.90
44990;DHT22;30723;51.206;3.326;2023-04-24T11:37:54;15.80;99.90
44990;DHT22;30723;51.206;3.326;2023-04-24T11:40:23;15.40;99.90
44990;DHT22;30723;51.206;3.326;2023-04-24T11:42:51;15.10;99.90
44990;DHT22;30723;51.206;3.326;2023-04-24T11:45:27;15.00;99.90
44990;DHT22;30723;51.206;3.326;2023-04-24T11:47:54;14.80;99.90
44990;DHT22;30723;51.206;3.326;2023-04-24T11:50:23;14.90;99.90
44990;DHT22;30723;51.206;3.326;2023-04-24T11:52:51;14.50;99.90
44990;DHT22;30723;51.206;3.326;2023-04-24T11:57:45;13.90;99.90
44990;DHT22;30723;51.206;3.326;2023-04-24T12:00:19;14.30;99.90
44990;DHT22;30723;51.206;3.326;2023-04-24T12:02:47;13.80;99.90
44990;DHT22;30723;51.206;3.326;2023-04-24T12:05:36;13.60;99.90
44990;DHT22;30723;51.206;3.326;2023-04-24T12:08:03;14.10;99.90
44990;DHT22;30723;51.206;3.326;2023-04-24T12:10:32;14.40;99.90
44990;DHT22;30723;51.206;3.326;2023-04-24T12:12:59;14.50;99.90
44990;DHT22;30723;51.206;3.326;2023-04-24T12:15:27;14.10;99.90
44990;DHT22;30723;51.206;3.326;2023-04-24T12:17:56;14.60;99.90
44990;DHT22;30723;51.206;3.326;2023-04-24T12:20:45;15.20;99.90
44990;DHT22;30723;51.206;3.326;2023-04-24T12:23:10;15.70;99.90
44990;DHT22;30723;51.206;3.326;2023-04-24T12:25:40;15.20;99.90
44990;DHT22;30723;51.206;3.326;2023-04-24T12:30:40;14.20;99.90
44990;DHT22;30723;51.206;3.326;2023-04-24T12:33:08;13.80;99.90
44990;DHT22;30723;51.206;3.326;2023-04-24T12:35:34;13.80;99.90
44990;DHT22;30723;51.206;3.326;2023-04-24T12:38:11;13.40;99.90
44990;DHT22;30723;51.206;3.326;2023-04-24T12:40:38;13.80;99.90
44990;DHT22;30723;51.206;3.326;2023-04-24T12:43:34;15.70;99.90
44990;DHT22;30723;51.206;3.326;2023-04-24T12:46:00;17.70;99.90
44990;DHT22;30723;51.206;3.326;2023-04-24T12:48:28;17.90;99.90
44990;DHT22;30723;51.206;3.326;2023-04-24T12:50:56;17.40;99.90
44990;DHT22;30723;51.206;3.326;2023-04-24T12:53:22;16.50;99.90
44990;DHT22;30723;51.206;3.326;2023-04-24T12:55:49;15.90;99.90
44990;DHT22;30723;51.206;3.326;2023-04-24T12:58:20;15.50;99.90
44990;DHT22;30723;51.206;3.326;2023-04-24T13:00:47;14.50;99.90
44990;DHT22;30723;51.206;3.326;2023-04-24T13:03:13;15.40;99.90
44990;DHT22;30723;51.206;3.326;2023-04-24T13:05:39;15.60;99.90
44990;DHT22;30723;51.206;3.326;2023-04-24T13:08:06;15.50;99.90
44990;DHT22;30723;51.206;3.326;2023-04-24T13:10:32;15.10;99.90
44990;DHT22;30723;51.206;3.326;2023-04-24T13:13:00;14.50;99.90
44990;DHT22;30723;51.206;3.326;2023-04-24T13:15:27;14.10;99.90
44990;DHT22;30723;51.206;3.326;2023-04-24T13:17:53;13.90;99.90
44990;DHT22;30723;51.206;3.326;2023-04-24T13:20:20;13.80;99.90
44990;DHT22;30723;51.206;3.326;2023-04-24T13:22:46;14.50;99.90
44990;DHT22;30723;51.206;3.326;2023-04-24T13:25:12;16.50;99.90
44990;DHT22;30723;51.206;3.326;2023-04-24T13:27:39;17.60;99.90
44990;DHT22;30723;51.206;3.326;2023-04-24T13:30:06;19.20;99.90
44990;DHT22;30723;51.206;3.326;2023-04-24T13:32:33;19.30;99.90
44990;DHT22;30723;51.206;3.326;2023-04-24T13:35:01;19.30;99.30
44990;DHT22;30723;51.206;3.326;2023-04-24T13:37:28;18.80;99.90
44990;DHT22;30723;51.206;3.326;2023-04-24T13:39:56;19.20;98.70
44990;DHT22;30723;51.206;3.326;2023-04-24T13:42:21;18.40;98.20
44990;DHT22;30723;51.206;3.326;2023-04-24T13:44:48;17.30;99.90
44990;DHT22;30723;51.206;3.326;2023-04-24T13:47:15;16.70;99.90
44990;DHT22;30723;51.206;3.326;2023-04-24T13:49:41;16.00;99.90
44990;DHT22;30723;51.206;3.326;2023-04-24T13:52:08;16.30;99.90
44990;DHT22;30723;51.206;3.326;2023-04-24T13:54:39;16.80;99.90
44990;DHT22;30723;51.206;3.326;2023-04-24T13:57:05;17.60;99.90
44990;DHT22;30723;51.206;3.326;2023-04-24T13:59:31;18.40;99.90
44990;DHT22;30723;51.206;3.326;2023-04-24T14:01:57;18.50;99.90
44990;DHT22;30723;51.206;3.326;2023-04-24T14:04:24;18.90;99.50
44990;DHT22;30723;51.206;3.326;2023-04-24T14:06:51;18.90;99.00
44990;DHT22;30723;51.206;3.326;2023-04-24T14:09:16;19.50;99.90
44990;DHT22;30723;51.206;3.326;2023-04-24T14:11:42;20.20;98.30
44990;DHT22;30723;51.206;3.326;2023-04-24T14:14:08;20.90;95.70
44990;DHT22;30723;51.206;3.326;2023-04-24T14:16:34;20.50;94.10
44990;DHT22;30723;51.206;3.326;2023-04-24T14:19:00;21.00;91.80
44990;DHT22;30723;51.206;3.326;2023-04-24T14:21:26;20.80;90.60
44990;DHT22;30723;51.206;3.326;2023-04-24T14:23:53;19.90;93.00
44990;DHT22;30723;51.206;3.326;2023-04-24T14:26:19;20.20;92.30
44990;DHT22;30723;51.206;3.326;2023-04-24T14:28:46;20.90;91.10
44990;DHT22;30723;51.206;3.326;2023-04-24T14:31:12;21.80;92.20
44990;DHT22;30723;51.206;3.326;2023-04-24T14:33:39;21.00;90.90
44990;DHT22;30723;51.206;3.326;2023-04-24T14:36:05;20.80;89.00
44990;DHT22;30723;51.206;3.326;2023-04-24T14:38:32;20.90;90.20
44990;DHT22;30723;51.206;3.326;2023-04-24T14:40:59;21.10;91.50
44990;DHT22;30723;51.206;3.326;2023-04-24T14:43:26;20.60;90.30
44990;DHT22;30723;51.206;3.326;2023-04-24T14:45:53;20.20;91.40
44990;DHT22;30723;51.206;3.326;2023-04-24T14:48:20;19.80;91.00
44990;DHT22;30723;51.206;3.326;2023-04-24T14:50:46;19.60;92.60
44990;DHT22;30723;51.206;3.326;2023-04-24T14:53:14;18.90;93.60
44990;DHT22;30723;51.206;3.326;2023-04-24T14:55:41;19.00;93.70
44990;DHT22;30723;51.206;3.326;2023-04-24T14:58:08;19.20;95.80
44990;DHT22;30723;51.206;3.326;2023-04-24T15:00:34;19.70;93.60
44990;DHT22;30723;51.206;3.326;2023-04-24T15:03:00;20.00;93.50
44990;DHT22;30723;51.206;3.326;2023-04-24T15:05:26;20.30;92.60
44990;DHT22;30723;51.206;3.326;2023-04-24T15:07:52;20.70;93.10
44990;DHT22;30723;51.206;3.326;2023-04-24T15:10:20;19.70;90.90
44990;DHT22;30723;51.206;3.326;2023-04-24T15:12:48;18.60;93.20
44990;DHT22;30723;51.206;3.326;2023-04-24T15:15:14;17.70;93.80
44990;DHT22;30723;51.206;3.326;2023-04-24T15:17:40;16.90;97.70
44990;DHT22;30723;51.206;3.326;2023-04-24T15:20:06;16.40;98.70
44990;DHT22;30723;51.206;3.326;2023-04-24T15:22:33;16.70;99.30
44990;DHT22;30723;51.206;3.326;2023-04-24T15:24:59;17.20;99.00
44990;DHT22;30723;51.206;3.326;2023-04-24T15:27:27;17.00;97.70
44990;DHT22;30723;51.206;3.326;2023-04-24T15:29:53;16.20;99.20
44990;DHT22;30723;51.206;3.326;2023-04-24T15:32:20;15.70;99.20
44990;DHT22;30723;51.206;3.326;2023-04-24T15:34:47;15.10;99.90
44990;DHT22;30723;51.206;3.326;2023-04-24T15:37:14;14.70;99.90
44990;DHT22;30723;51.206;3.326;2023-04-24T15:39:40;14.40;99.90
44990;DHT22;30723;51.206;3.326;2023-04-24T15:42:05;14.50;99.90
44990;DHT22;30723;51.206;3.326;2023-04-24T15:44:31;14.70;99.90
44990;DHT22;30723;51.206;3.326;2023-04-24T15:47:00;14.60;99.90
44990;DHT22;30723;51.206;3.326;2023-04-24T15:49:26;14.40;99.90
44990;DHT22;30723;51.206;3.326;2023-04-24T15:51:53;14.20;99.90
44990;DHT22;30723;51.206;3.326;2023-04-24T15:54:20;14.20;99.90
44990;DHT22;30723;51.206;3.326;2023-04-24T15:56:46;13.90;99.90
44990;DHT22;30723;51.206;3.326;2023-04-24T15:59:16;13.90;99.90
44990;DHT22;30723;51.206;3.326;2023-04-24T16:01:41;13.90;99.90
44990;DHT22;30723;51.206;3.326;2023-04-24T16:04:07;14.20;99.90